Time;durP1;ratioP1;P1;durP2;ratioP2;P2;SDS_P1;SDS_P2;PMS_P1;PMS_P2;Temp;Humidity;BMP_temperature;BMP_pressure;BME280_temperature;BME280_humidity;BME280_pressure;Samples;Min_cycle;Max_cycle;Signal;HPM_P1;HPM_P2
2022/06/06 00:01:47;;;;;;;7.30;4.40;;;;;;;21.50;72.66;94738.59;4977320;28;20181;-80
2022/06/06 00:04:14;;;;;;;5.85;4.50;;;;;;;21.33;74.03;94755.09;4988794;28;20181;-79
2022/06/06 00:06:40;;;;;;;9.55;4.85;;;;;;;21.23;74.63;94744.44;4977639;28;20186;-80
2022/06/06 00:09:07;;;;;;;6.47;5.25;;;;;;;21.10;74.82;94727.13;4989983;28;20177;-80
2022/06/06 00:11:34;;;;;;;5.20;4.70;;;;;;;21.16;75.46;94747.44;4995843;28;20292;-80
2022/06/06 00:14:00;;;;;;;9.88;4.50;;;;;;;20.87;75.36;94698.38;4976285;28;20284;-80
2022/06/06 00:16:25;;;;;;;7.32;4.07;;;;;;;21.28;75.20;94747.06;4981893;28;20693;-80
2022/06/06 00:18:51;;;;;;;9.98;4.63;;;;;;;21.07;74.75;94709.75;4986624;28;20181;-80
2022/06/06 00:21:16;;;;;;;7.07;4.25;;;;;;;21.01;74.60;94691.31;4987633;28;20238;-80
2022/06/06 00:23:42;;;;;;;9.73;5.40;;;;;;;21.06;74.68;94686.72;4987413;28;20169;-80
2022/06/06 00:26:10;;;;;;;11.45;5.43;;;;;;;21.42;73.83;94719.38;4980364;28;20244;-80
2022/06/06 00:28:36;;;;;;;11.32;5.65;;;;;;;21.35;74.09;94699.38;4978890;28;20252;-80
2022/06/06 00:34:48;;;;;;;10.07;5.05;;;;;;;21.08;73.85;94659.69;4978553;28;20200;-80
2022/06/06 00:36:33;;;;;;;6.75;4.53;;;;;;;21.29;73.98;94661.09;4988940;28;20257;-80
2022/06/06 00:38:58;;;;;;;10.63;4.28;;;;;;;21.48;73.27;94677.25;4987938;28;20181;-80
2022/06/06 00:41:24;;;;;;;7.82;4.88;;;;;;;21.45;72.96;94669.78;4988103;28;20251;-80
2022/06/06 00:44:17;;;;;;;8.93;5.18;;;;;;;21.60;72.21;94693.75;5004142;28;20208;-80
2022/06/06 00:46:47;;;;;;;6.88;4.75;;;;;;;21.56;72.62;94668.59;4980058;28;20168;-81
2022/06/06 00:49:27;;;;;;;7.03;5.15;;;;;;;21.36;72.89;94634.00;4980819;28;20673;-81
2022/06/06 00:51:54;;;;;;;11.85;5.40;;;;;;;21.72;72.63;94674.59;4974211;28;20209;-81
2022/06/06 00:54:23;;;;;;;7.03;4.93;;;;;;;21.75;71.98;94666.81;4983466;28;20189;-81
2022/06/06 00:56:54;;;;;;;8.50;4.45;;;;;;;21.67;71.33;94642.50;4989056;28;20177;-81
2022/06/06 00:59:25;;;;;;;7.13;4.40;;;;;;;21.73;71.62;94678.88;4987084;28;20550;-81
2022/06/06 01:01:52;;;;;;;8.38;4.68;;;;;;;21.48;71.72;94636.28;4985898;28;20191;-81
2022/06/06 01:04:20;;;;;;;6.95;5.38;;;;;;;21.60;71.85;94640.19;4977039;28;20166;-81
2022/06/06 01:06:47;;;;;;;9.45;5.15;;;;;;;21.57;71.84;94622.00;4978154;28;20335;-81
2022/06/06 01:09:17;;;;;;;11.25;5.35;;;;;;;21.46;72.10;94618.63;4977538;28;20173;-81
2022/06/06 01:11:50;;;;;;;12.05;5.35;;;;;;;21.37;73.11;94595.41;4976627;28;20193;-81
2022/06/06 01:14:20;;;;;;;8.13;5.00;;;;;;;21.64;73.44;94619.75;4977822;28;20243;-81
2022/06/06 01:16:49;;;;;;;10.70;5.07;;;;;;;21.65;74.10;94610.63;4984077;28;20181;-81
2022/06/06 01:19:33;;;;;;;7.22;4.88;;;;;;;21.59;75.35;94621.72;4988697;28;20692;-81
2022/06/06 01:22:18;;;;;;;6.50;4.80;;;;;;;21.51;77.80;94606.25;4989399;28;20177;-81
2022/06/06 01:25:03;;;;;;;8.68;5.45;;;;;;;21.55;78.39;94609.94;4988636;28;20169;-81
2022/06/06 01:27:46;;;;;;;13.70;5.63;;;;;;;21.12;79.87;94593.75;4986726;28;20165;-81
2022/06/06 01:30:15;;;;;;;16.95;5.35;;;;;;;21.22;81.58;94628.50;4976795;28;20173;-81
2022/06/06 01:32:45;;;;;;;33.92;19.35;;;;;;;21.18;83.12;94640.88;4977171;28;20209;-81
2022/06/06 01:35:20;;;;;;;17.55;7.85;;;;;;;21.20;83.39;94689.56;4970799;28;20184;-81
2022/06/06 01:37:46;;;;;;;11.18;6.03;;;;;;;21.08;82.79;94756.06;4980626;28;20239;-81
2022/06/06 01:40:14;;;;;;;11.50;5.28;;;;;;;21.20;82.45;94783.28;4980512;28;20233;-81
2022/06/06 01:42:56;;;;;;;8.25;4.43;;;;;;;21.08;79.43;94798.88;4980599;28;20173;-80
2022/06/06 01:45:43;;;;;;;13.38;5.15;;;;;;;21.03;80.45;94789.00;4980565;28;20249;-80
2022/06/06 01:48:15;;;;;;;26.92;7.30;;;;;;;20.90;82.73;94770.09;4995572;28;20178;-79
2022/06/06 01:50:43;;;;;;;24.38;7.38;;;;;;;20.60;85.85;94744.28;4980490;28;20185;-81
2022/06/06 01:53:12;;;;;;;16.17;5.22;;;;;;;20.28;87.95;94713.41;4995902;28;20194;-81
2022/06/06 01:55:42;;;;;;;13.18;5.60;;;;;;;20.32;89.21;94737.72;4980165;28;20177;-80
2022/06/06 01:58:11;;;;;;;13.55;5.30;;;;;;;20.29;89.20;94740.94;4980317;28;20252;-80
2022/06/06 02:00:38;;;;;;;12.05;4.72;;;;;;;20.34;90.44;94747.09;4981591;28;20196;-80
2022/06/06 02:03:04;;;;;;;9.25;4.68;;;;;;;20.16;89.26;94722.81;4995351;28;20255;-80
2022/06/06 02:05:30;;;;;;;8.60;4.43;;;;;;;20.26;89.07;94733.47;4982434;28;20246;-76
2022/06/06 02:07:56;;;;;;;11.10;4.45;;;;;;;20.36;89.77;94740.66;4991511;28;20177;-80
2022/06/06 02:10:22;;;;;;;8.35;4.00;;;;;;;20.25;90.05;94731.84;4992236;28;20201;-80
2022/06/06 02:12:48;;;;;;;7.85;4.90;;;;;;;20.23;89.37;94744.72;4982040;28;20204;-80
2022/06/06 02:15:17;;;;;;;14.18;4.60;;;;;;;20.26;89.34;94761.00;4991781;28;20260;-81
2022/06/06 02:17:43;;;;;;;8.98;4.20;;;;;;;20.24;88.54;94797.09;4991862;28;20174;-81
2022/06/06 02:20:11;;;;;;;7.10;3.92;;;;;;;20.18;89.62;94804.34;4990070;28;20188;-81
2022/06/06 02:22:37;;;;;;;10.63;4.60;;;;;;;19.89;89.66;94776.63;5006820;28;20161;-80
2022/06/06 02:25:03;;;;;;;11.00;6.47;;;;;;;20.07;90.51;94809.97;4988857;28;20260;-80
2022/06/06 02:27:29;;;;;;;15.43;5.20;;;;;;;20.02;91.14;94805.44;4991827;28;20165;-80
2022/06/06 02:29:54;;;;;;;16.52;5.25;;;;;;;20.16;91.98;94827.84;4981965;28;20165;-80
2022/06/06 02:32:20;;;;;;;8.55;4.55;;;;;;;20.22;92.43;94828.66;4983363;28;20197;-80
2022/06/06 02:34:45;;;;;;;12.20;4.05;;;;;;;20.28;93.24;94819.56;4983028;28;20201;-79
2022/06/06 02:37:11;;;;;;;7.47;3.25;;;;;;;20.34;92.70;94805.13;4991268;28;20221;-80
2022/06/06 02:39:36;;;;;;;20.60;3.53;;;;;;;20.30;91.27;94799.50;4984428;28;20177;-80
2022/06/06 02:42:02;;;;;;;10.88;4.95;;;;;;;20.22;90.92;94780.53;4979618;28;20725;-80
2022/06/06 02:44:27;;;;;;;8.60;4.38;;;;;;;20.29;92.80;94781.84;4979427;28;20177;-80
2022/06/06 02:46:53;;;;;;;11.75;4.93;;;;;;;20.29;92.70;94757.78;4985196;28;20177;-80
2022/06/06 02:49:18;;;;;;;9.98;5.00;;;;;;;20.10;92.77;94714.00;4990239;28;20200;-80
2022/06/06 02:51:44;;;;;;;15.52;6.78;;;;;;;20.04;93.39;94691.06;4989847;28;20585;-80
2022/06/06 02:54:09;;;;;;;11.48;5.30;;;;;;;19.74;93.66;94646.53;4983026;28;20685;-80
2022/06/06 02:56:35;;;;;;;12.23;5.95;;;;;;;20.02;94.37;94679.84;4986327;28;20217;-79
2022/06/06 02:59:05;;;;;;;13.52;7.10;;;;;;;20.08;94.21;94688.63;4984742;28;20170;-79
2022/06/06 03:01:31;;;;;;;10.85;5.40;;;;;;;20.14;95.30;94676.84;4986275;28;20666;-80
2022/06/06 03:03:56;;;;;;;9.35;4.70;;;;;;;20.15;94.56;94695.28;4980224;28;20169;-80
2022/06/06 03:06:44;;;;;;;13.15;5.22;;;;;;;20.19;94.56;94700.88;4986665;28;20595;-80
2022/06/06 03:09:24;;;;;;;8.50;4.47;;;;;;;20.22;94.82;94711.84;4984356;28;20188;-80
2022/06/06 03:12:14;;;;;;;11.00;5.30;;;;;;;20.24;95.00;94708.88;4980025;28;20967;-80
2022/06/06 03:14:48;;;;;;;11.70;4.93;;;;;;;20.38;94.95;94722.47;4985802;28;20181;-80
2022/06/06 03:20:47;;;;;;;11.30;6.10;;;;;;;20.25;94.03;94747.91;4980043;28;20184;-80
2022/06/06 03:23:50;;;;;;;12.13;4.50;;;;;;;20.22;94.35;94748.47;4982557;28;20562;-79
2022/06/06 03:26:27;;;;;;;13.15;5.40;;;;;;;20.27;94.80;94764.47;4978050;28;20173;-79
2022/06/06 03:29:17;;;;;;;8.55;4.25;;;;;;;20.31;94.44;94774.38;4997828;28;20185;-79
2022/06/06 03:32:13;;;;;;;6.05;4.22;;;;;;;20.29;94.25;94791.75;4982587;28;20567;-80
2022/06/06 03:34:57;;;;;;;13.38;7.18;;;;;;;20.32;93.29;94793.88;5016484;28;20671;-80
2022/06/06 03:37:41;;;;;;;16.83;7.00;;;;;;;20.26;93.30;94801.09;4987094;28;20296;-80
2022/06/06 03:40:45;;;;;;;11.52;5.85;;;;;;;20.04;93.31;94767.78;4992784;28;20178;-80
2022/06/06 03:43:29;;;;;;;8.95;5.32;;;;;;;20.11;93.96;94787.00;4982016;28;20558;-80
2022/06/06 03:46:33;;;;;;;11.52;6.28;;;;;;;19.69;94.62;94766.78;4976788;28;20289;-80
2022/06/06 03:49:15;;;;;;;13.52;6.65;;;;;;;19.56;95.24;94760.09;4983766;28;20168;-80
2022/06/06 03:51:47;;;;;;;13.05;7.20;;;;;;;19.77;96.13;94792.94;4993332;28;20704;-79
2022/06/06 03:54:35;;;;;;;16.70;8.63;;;;;;;19.65;95.76;94756.88;4977422;28;20173;-80
2022/06/06 03:57:17;;;;;;;12.30;5.72;;;;;;;19.98;96.10;94797.16;4984337;28;20174;-80
2022/06/06 03:59:46;;;;;;;11.10;5.78;;;;;;;19.91;95.76;94772.59;4982436;28;20177;-80
2022/06/06 04:02:18;;;;;;;11.77;5.78;;;;;;;19.90;94.54;94768.31;4985156;28;20654;-80
2022/06/06 04:04:44;;;;;;;11.18;5.70;;;;;;;20.01;95.30;94779.78;4988781;28;20173;-80
2022/06/06 04:07:10;;;;;;;9.88;5.97;;;;;;;19.92;94.98;94755.50;4980897;28;20181;-80
2022/06/06 04:09:35;;;;;;;10.35;5.90;;;;;;;20.05;94.94;94778.19;4982259;28;20174;-80
2022/06/06 04:12:07;;;;;;;8.60;5.45;;;;;;;20.07;95.09;94775.22;4984853;28;20211;-79
2022/06/06 04:15:03;;;;;;;14.50;5.95;;;;;;;20.02;95.09;94780.59;4983590;28;20255;-79
2022/06/06 04:17:57;;;;;;;9.75;5.47;;;;;;;20.05;95.58;94769.38;4985561;28;20169;-81
2022/06/06 04:20:48;;;;;;;10.00;6.45;;;;;;;20.15;95.62;94772.00;4980554;28;20188;-79
2022/06/06 04:24:06;;;;;;;9.95;5.70;;;;;;;20.24;94.87;94773.84;4981588;28;20177;-79
2022/06/06 04:27:16;;;;;;;9.23;5.80;;;;;;;19.93;94.41;94719.69;4935428;28;20189;-79
2022/06/06 04:29:58;;;;;;;13.85;7.32;;;;;;;20.35;94.50;94774.63;4968617;28;20593;-79
2022/06/06 04:32:38;;;;;;;9.35;5.80;;;;;;;20.39;93.49;94772.22;4976765;28;20198;-79
2022/06/06 04:35:23;;;;;;;10.70;5.85;;;;;;;20.31;93.22;94762.88;5013785;28;20188;-79
2022/06/06 04:38:08;;;;;;;12.15;5.75;;;;;;;20.41;94.07;94764.72;4974180;28;20237;-83
2022/06/06 04:40:39;;;;;;;14.68;6.40;;;;;;;20.44;93.29;94773.00;4975427;28;20190;-82
2022/06/06 04:43:05;;;;;;;13.48;6.20;;;;;;;20.35;92.76;94782.66;4978863;28;20178;-83
2022/06/06 04:45:46;;;;;;;13.57;5.47;;;;;;;20.30;94.19;94778.09;4986390;28;20179;-82
2022/06/06 04:48:13;;;;;;;9.85;5.85;;;;;;;20.03;92.92;94736.75;4981862;28;20182;-82
2022/06/06 04:50:42;;;;;;;12.90;6.55;;;;;;;20.10;93.84;94726.56;4982068;28;20602;-82
2022/06/06 04:53:13;;;;;;;8.77;5.97;;;;;;;20.51;93.00;94783.38;4980799;28;20710;-81
2022/06/06 04:55:41;;;;;;;10.15;6.05;;;;;;;20.22;92.50;94729.75;4969257;28;20197;-81
2022/06/06 04:58:09;;;;;;;12.45;7.22;;;;;;;20.34;92.18;94744.41;4972521;28;20173;-81
2022/06/06 05:00:36;;;;;;;15.15;7.25;;;;;;;20.11;92.63;94728.97;4975203;28;20532;-81
2022/06/06 05:03:03;;;;;;;11.68;6.55;;;;;;;20.33;93.60;94750.00;4976266;28;20625;-81
2022/06/06 05:05:42;;;;;;;12.65;6.85;;;;;;;20.24;94.01;94767.69;4979854;28;20197;-81
2022/06/06 05:08:07;;;;;;;17.65;8.98;;;;;;;20.48;94.49;94791.97;4980279;28;20173;-81
2022/06/06 05:10:55;;;;;;;21.67;12.55;;;;;;;20.47;94.46;94793.84;4982209;28;20203;-81
2022/06/06 05:13:36;;;;;;;19.33;10.88;;;;;;;20.59;94.52;94802.34;4983259;28;20669;-81
2022/06/06 05:16:04;;;;;;;17.00;7.78;;;;;;;20.43;93.76;94806.16;4979520;28;20247;-81
2022/06/06 05:18:44;;;;;;;25.73;15.32;;;;;;;20.40;93.22;94788.00;4994740;28;20182;-81
2022/06/06 05:21:13;;;;;;;26.27;16.02;;;;;;;20.52;93.12;94809.88;4979345;28;20166;-81
2022/06/06 05:24:02;;;;;;;14.63;6.72;;;;;;;20.45;92.53;94758.53;4981819;28;20181;-81
2022/06/06 05:26:40;;;;;;;25.08;15.57;;;;;;;21.04;93.18;94800.50;4980539;28;20169;-81
2022/06/06 05:29:30;;;;;;;21.92;10.52;;;;;;;21.34;93.23;94805.69;4978110;28;20173;-81
2022/06/06 05:32:08;;;;;;;12.80;6.32;;;;;;;21.55;91.34;94790.25;4979078;28;20193;-81
2022/06/06 05:34:41;;;;;;;11.40;8.57;;;;;;;21.68;91.42;94778.09;4997427;28;20658;-81
2022/06/06 05:37:18;;;;;;;16.33;9.27;;;;;;;21.81;87.30;94791.63;4969344;28;20221;-82
2022/06/06 05:40:09;;;;;;;24.52;16.00;;;;;;;21.84;88.48;94777.66;4996781;28;20196;-84
2022/06/06 05:43:01;;;;;;;16.98;9.50;;;;;;;21.97;85.29;94789.63;4976495;28;20181;-83
2022/06/06 05:45:56;;;;;;;16.13;5.47;;;;;;;22.22;85.54;94806.56;4954263;28;20179;-81
2022/06/06 05:48:41;;;;;;;16.77;6.28;;;;;;;22.24;83.80;94801.69;4958678;28;20205;-82
2022/06/06 05:51:53;;;;;;;12.02;5.65;;;;;;;22.36;84.17;94808.28;4974081;28;20620;-79
2022/06/06 05:54:24;;;;;;;11.88;5.75;;;;;;;22.45;83.67;94816.50;4972834;28;20190;-80
2022/06/06 05:57:13;;;;;;;12.52;7.18;;;;;;;22.57;84.63;94809.63;4981963;28;20276;-79
2022/06/06 06:00:05;;;;;;;9.90;5.50;;;;;;;22.48;83.73;94781.03;4991366;28;20189;-80
2022/06/06 06:02:45;;;;;;;11.95;6.88;;;;;;;22.68;86.15;94804.94;4973024;28;20189;-80
2022/06/06 06:05:48;;;;;;;9.35;5.50;;;;;;;22.92;82.81;94811.09;4958084;28;20175;-80
2022/06/06 06:08:23;;;;;;;10.93;6.00;;;;;;;22.95;82.51;94799.78;4982795;28;20178;-80
2022/06/06 06:11:04;;;;;;;14.35;6.53;;;;;;;23.05;83.09;94800.72;4978300;28;20178;-80
2022/06/06 06:13:55;;;;;;;18.60;8.48;;;;;;;23.09;80.48;94807.91;4982493;28;20205;-80
2022/06/06 06:16:23;;;;;;;10.38;5.47;;;;;;;23.31;80.75;94815.38;4984475;28;20662;-80
2022/06/06 06:19:04;;;;;;;13.68;5.47;;;;;;;23.38;82.62;94813.13;4976862;28;20636;-79
2022/06/06 06:21:33;;;;;;;11.13;6.35;;;;;;;23.47;81.62;94808.69;4981047;28;20204;-80
2022/06/06 06:24:06;;;;;;;11.82;7.00;;;;;;;23.56;82.45;94792.72;4984937;28;20172;-80
2022/06/06 06:26:32;;;;;;;13.55;6.88;;;;;;;23.80;82.65;94809.53;4988041;28;20712;-79
2022/06/06 06:29:03;;;;;;;17.80;7.60;;;;;;;23.93;81.43;94818.72;4984434;28;20178;-80
2022/06/06 06:31:53;;;;;;;14.10;9.35;;;;;;;24.11;80.25;94819.78;5002020;28;20616;-80
2022/06/06 06:34:25;;;;;;;12.27;6.85;;;;;;;24.43;80.93;94817.03;4980557;28;20181;-81
2022/06/06 06:36:56;;;;;;;14.90;8.75;;;;;;;24.63;77.07;94808.56;4987688;28;20228;-80
2022/06/06 06:39:44;;;;;;;14.07;6.30;;;;;;;24.78;76.61;94812.84;4985314;28;20185;-80
2022/06/06 06:42:37;;;;;;;16.40;7.10;;;;;;;24.89;77.88;94802.66;4978281;28;20991;-79
2022/06/06 06:45:18;;;;;;;13.98;7.28;;;;;;;25.25;79.21;94794.63;4988592;28;20165;-80
2022/06/06 06:47:51;;;;;;;14.57;6.07;;;;;;;25.53;74.10;94782.63;4984194;28;20643;-80
2022/06/06 06:50:42;;;;;;;10.52;6.13;;;;;;;25.97;75.21;94781.84;4989300;28;20186;-80
2022/06/06 06:53:22;;;;;;;15.02;6.43;;;;;;;26.51;73.75;94782.59;4968131;28;20213;-80
2022/06/06 06:56:18;;;;;;;11.27;5.75;;;;;;;26.94;71.41;94771.91;4988707;28;20188;-80
2022/06/06 06:59:19;;;;;;;10.98;6.72;;;;;;;27.24;69.29;94771.00;4993861;28;20181;-80
2022/06/06 07:11:10;;;;;;;12.90;6.10;;;;;;;28.18;67.62;94755.78;4980806;28;20310;-80
2022/06/06 07:14:03;;;;;;;12.23;6.28;;;;;;;28.39;63.55;94759.34;5000662;28;20746;-79
2022/06/06 07:16:33;;;;;;;12.85;6.00;;;;;;;28.46;63.49;94769.69;4981779;28;20173;-80
2022/06/06 07:19:12;;;;;;;10.23;5.43;;;;;;;28.57;64.77;94754.66;4985404;28;20176;-79
2022/06/06 07:21:40;;;;;;;14.02;5.18;;;;;;;28.44;63.00;94732.09;4982023;28;20248;-79
2022/06/06 07:24:10;;;;;;;14.13;5.15;;;;;;;28.44;64.62;94736.72;4980438;28;20173;-79
2022/06/06 07:26:38;;;;;;;11.93;5.25;;;;;;;28.37;64.34;94739.13;4983309;28;20173;-81
2022/06/06 07:29:06;;;;;;;19.63;5.38;;;;;;;28.62;62.16;94746.34;4984193;28;20172;-80
2022/06/06 07:31:53;;;;;;;9.32;5.30;;;;;;;28.84;62.17;94745.28;4982284;28;20180;-80
2022/06/06 07:34:25;;;;;;;11.52;4.75;;;;;;;28.98;62.84;94753.94;4980243;28;20169;-81
2022/06/06 07:36:58;;;;;;;11.75;4.80;;;;;;;29.22;59.52;94758.75;4979525;28;20320;-81
2022/06/06 07:39:51;;;;;;;17.33;5.90;;;;;;;29.16;59.91;94757.34;4984094;28;20264;-81
2022/06/06 07:43:00;;;;;;;10.77;4.18;;;;;;;29.13;60.43;94745.25;4972885;28;20165;-83
2022/06/06 07:45:38;;;;;;;13.85;5.10;;;;;;;29.34;60.75;94761.50;4987354;28;20176;-80
2022/06/06 07:48:04;;;;;;;13.43;5.25;;;;;;;29.34;62.42;94756.09;4982330;28;20177;-80
2022/06/06 07:50:48;;;;;;;24.73;6.72;;;;;;;29.50;61.25;94757.09;4994653;28;20182;-81
2022/06/06 07:53:27;;;;;;;16.50;4.75;;;;;;;29.51;59.42;94747.81;4980286;28;20926;-81
2022/06/06 07:56:04;;;;;;;120.68;24.52;;;;;;;29.80;60.80;94765.13;4997983;28;20176;-80
2022/06/06 07:58:49;;;;;;;24.75;8.10;;;;;;;29.94;60.94;94744.72;4982853;28;20193;-81
2022/06/06 08:01:44;;;;;;;17.75;4.88;;;;;;;30.16;57.94;94754.41;4993809;28;20165;-82
2022/06/06 08:04:33;;;;;;;13.05;4.50;;;;;;;30.01;56.89;94755.81;4974379;28;20178;-80
2022/06/06 08:07:23;;;;;;;10.48;5.43;;;;;;;29.78;57.13;94756.53;4996693;28;20174;-79
2022/06/06 08:10:18;;;;;;;13.02;7.43;;;;;;;29.58;59.13;94756.22;4979488;28;20202;-83
2022/06/06 08:12:58;;;;;;;9.27;4.28;;;;;;;29.38;58.76;94762.47;4976172;28;20205;-84
2022/06/06 08:15:42;;;;;;;58.80;12.80;;;;;;;29.11;58.61;94771.91;4982963;28;20169;-84
2022/06/06 08:18:45;;;;;;;32.72;9.75;;;;;;;28.71;57.17;94760.66;4980044;28;20178;-83
2022/06/06 08:21:39;;;;;;;9.70;3.78;;;;;;;28.33;58.90;94768.00;4976050;28;20179;-83
2022/06/06 08:24:11;;;;;;;15.85;4.38;;;;;;;27.89;60.60;94723.19;4982636;28;20232;-84
2022/06/06 08:26:39;;;;;;;30.70;8.65;;;;;;;28.04;63.34;94779.50;4985821;28;20170;-83
2022/06/06 08:29:06;;;;;;;38.58;17.20;;;;;;;27.91;61.45;94775.09;4982234;28;20166;-83
2022/06/06 08:31:32;;;;;;;12.40;5.25;;;;;;;27.88;62.21;94773.81;4978498;28;20178;-84
2022/06/06 08:33:58;;;;;;;14.02;4.50;;;;;;;27.80;61.66;94761.13;4986941;28;20565;-79
2022/06/06 08:36:45;;;;;;;15.25;3.58;;;;;;;27.89;61.00;94767.31;4985808;28;20189;-80
2022/06/06 08:39:17;;;;;;;9.57;3.13;;;;;;;27.98;59.01;94776.19;4981335;28;20703;-78
2022/06/06 08:42:02;;;;;;;15.02;3.33;;;;;;;27.84;56.59;94767.47;4981786;28;20169;-79
2022/06/06 08:44:42;;;;;;;10.27;3.40;;;;;;;27.72;58.07;94765.44;4981548;28;20181;-79
2022/06/06 08:47:27;;;;;;;10.50;4.05;;;;;;;27.26;61.00;94738.22;4979423;28;20169;-79
2022/06/06 08:52:57;;;;;;;9.50;3.47;;;;;;;27.25;63.42;94777.97;4982189;28;20285;-81
2022/06/06 08:55:57;;;;;;;15.80;4.82;;;;;;;27.08;61.28;94780.66;4989027;28;20281;-79
2022/06/06 08:58:34;;;;;;;14.20;3.70;;;;;;;26.91;59.99;94786.03;4979268;28;20233;-78
2022/06/06 09:01:37;;;;;;;13.82;3.55;;;;;;;26.58;59.47;94783.72;5001815;28;20174;-79
2022/06/06 09:04:58;;;;;;;8.88;2.47;;;;;;;25.84;58.40;94786.22;4980950;28;20682;-79
2022/06/06 09:07:50;;;;;;;5.43;1.98;;;;;;;25.18;56.02;94805.81;4975628;28;20191;-79
2022/06/06 09:10:40;;;;;;;6.30;2.60;;;;;;;24.61;56.84;94812.66;4963106;28;20205;-79
2022/06/06 09:13:37;;;;;;;7.25;2.28;;;;;;;24.21;58.83;94814.25;4972852;28;20237;-79
2022/06/06 09:16:06;;;;;;;10.25;3.20;;;;;;;24.00;66.83;94798.44;4961896;28;20456;-79
2022/06/06 09:19:10;;;;;;;6.75;2.85;;;;;;;23.24;68.70;94807.69;4995225;28;20213;-79
2022/06/06 09:21:38;;;;;;;6.65;2.70;;;;;;;22.75;71.79;94834.13;4976868;28;20651;-79
2022/06/06 09:24:33;;;;;;;5.75;3.25;;;;;;;22.36;74.01;94824.38;5008664;28;20174;-81
2022/06/06 09:27:18;;;;;;;6.38;3.00;;;;;;;22.16;77.91;94833.41;4966156;28;20709;-80
2022/06/06 09:30:11;;;;;;;6.85;2.75;;;;;;;21.86;78.31;94832.88;4982097;28;20178;-81
2022/06/06 09:32:53;;;;;;;6.55;2.60;;;;;;;21.74;79.46;94817.97;4980829;28;20204;-79
2022/06/06 09:35:27;;;;;;;7.88;2.97;;;;;;;21.53;79.45;94818.44;4980864;28;20670;-80
2022/06/06 09:38:06;;;;;;;8.73;3.30;;;;;;;21.39;82.22;94828.97;4978009;28;21069;-81
2022/06/06 09:40:57;;;;;;;6.15;3.60;;;;;;;21.51;80.66;94844.69;4974452;28;20178;-80
2022/06/06 09:43:51;;;;;;;9.43;3.85;;;;;;;21.54;82.17;94823.47;4984218;28;20540;-79
2022/06/06 09:46:17;;;;;;;6.18;3.42;;;;;;;21.57;81.87;94830.97;4960922;28;20196;-79
2022/06/06 09:49:03;;;;;;;6.18;3.92;;;;;;;21.74;83.26;94833.25;4995825;28;20955;-78
2022/06/06 09:51:50;;;;;;;5.03;2.90;;;;;;;22.04;77.81;94834.91;4981192;28;20177;-81
2022/06/06 10:01:09;;;;;;;5.32;2.80;;;;;;;23.09;72.86;94818.63;4957561;29;20185;-82
2022/06/06 10:03:55;;;;;;;4.43;2.75;;;;;;;23.24;71.20;94833.75;4978408;28;20240;-82
2022/06/06 10:07:06;;;;;;;6.07;3.00;;;;;;;23.23;69.75;94832.16;5000132;28;20182;-81
2022/06/06 10:10:01;;;;;;;5.45;2.63;;;;;;;23.10;69.90;94833.66;4946711;29;20277;-80
2022/06/06 10:12:49;;;;;;;5.00;2.97;;;;;;;22.95;69.97;94836.56;4997148;28;20620;-81
2022/06/06 10:15:35;;;;;;;3.90;3.05;;;;;;;22.98;70.34;94827.13;4979488;28;20675;-80
2022/06/06 10:18:26;;;;;;;3.65;2.42;;;;;;;22.89;69.48;94853.84;4986853;28;20189;-81
2022/06/06 10:21:34;;;;;;;6.15;2.53;;;;;;;22.77;70.30;94827.41;4984881;28;20182;-81
2022/06/06 10:24:23;;;;;;;15.73;4.45;;;;;;;23.03;77.73;94884.25;4967476;28;20671;-81
2022/06/06 10:27:13;;;;;;;10.52;3.70;;;;;;;22.72;78.55;94851.59;5009423;28;20178;-81
2022/06/06 10:32:41;;;;;;;6.47;3.67;;;;;;;22.01;78.71;94860.38;4977093;28;20277;-81
2022/06/06 10:35:09;;;;;;;7.90;3.92;;;;;;;21.94;79.65;94854.53;4984506;28;20185;-81
2022/06/06 10:37:58;;;;;;;10.63;3.78;;;;;;;21.99;83.81;94862.53;4996603;28;20280;-81
2022/06/06 10:40:36;;;;;;;9.77;4.47;;;;;;;22.01;83.21;94855.03;4982890;28;20248;-81
2022/06/06 10:43:15;;;;;;;7.78;3.78;;;;;;;21.82;80.57;94832.63;4985210;28;20192;-81
2022/06/06 10:45:53;;;;;;;7.45;3.40;;;;;;;21.78;79.62;94842.34;4986624;28;20208;-81
2022/06/06 10:48:51;;;;;;;6.68;2.75;;;;;;;21.51;79.22;94804.50;4986637;28;20189;-81
2022/06/06 10:54:31;;;;;;;7.32;3.38;;;;;;;21.65;84.05;94825.00;4976757;28;20584;-81
2022/06/06 10:57:06;;;;;;;6.85;3.58;;;;;;;21.71;85.78;94841.84;4999869;28;20249;-81
2022/06/06 10:59:51;;;;;;;7.20;3.47;;;;;;;21.76;87.67;94837.25;4996049;28;20723;-81
2022/06/06 11:02:52;;;;;;;5.60;3.95;;;;;;;21.80;86.72;94832.09;4993845;28;20174;-81
2022/06/06 11:05:32;;;;;;;8.68;3.42;;;;;;;21.78;80.70;94826.25;4979982;28;20170;-81
2022/06/06 11:07:58;;;;;;;4.85;3.15;;;;;;;21.81;81.73;94815.75;4983294;28;20176;-81
2022/06/06 11:10:30;;;;;;;6.47;3.70;;;;;;;21.80;81.45;94819.50;5000182;28;20209;-81
2022/06/06 11:13:10;;;;;;;9.52;3.33;;;;;;;21.74;80.79;94820.66;4984281;28;20197;-79
2022/06/06 11:15:45;;;;;;;8.38;3.22;;;;;;;21.75;80.68;94832.16;4974059;28;20184;-82
2022/06/06 11:18:39;;;;;;;6.05;2.80;;;;;;;21.84;82.39;94819.75;4988224;28;20170;-80
2022/06/06 11:21:07;;;;;;;6.40;3.30;;;;;;;21.98;81.65;94844.84;4983757;28;20541;-81
2022/06/06 11:23:56;;;;;;;7.07;3.50;;;;;;;21.92;83.91;94813.78;5002384;28;20623;-80
2022/06/06 11:26:46;;;;;;;4.55;3.05;;;;;;;22.10;79.29;94826.50;4983917;28;20173;-79
2022/06/06 11:29:23;;;;;;;10.07;3.70;;;;;;;22.17;79.75;94828.84;4979260;28;20162;-80
2022/06/06 11:32:26;;;;;;;5.43;2.90;;;;;;;22.08;79.16;94836.72;4970721;28;20224;-80
2022/06/06 11:35:18;;;;;;;6.15;3.00;;;;;;;21.92;80.34;94811.09;4978064;28;20255;-80
2022/06/06 11:38:11;;;;;;;8.73;3.60;;;;;;;21.97;80.12;94831.69;4979838;28;20229;-80
2022/06/06 11:40:54;;;;;;;4.43;2.70;;;;;;;22.06;79.00;94828.16;4982909;28;20662;-80
2022/06/06 11:43:38;;;;;;;4.35;2.90;;;;;;;22.27;80.11;94811.84;4990670;28;20166;-81
2022/06/06 11:46:25;;;;;;;5.30;3.22;;;;;;;22.14;78.17;94808.75;4983536;28;20216;-81
2022/06/06 11:49:09;;;;;;;4.15;3.15;;;;;;;22.08;80.88;94801.84;4985433;28;20579;-81
2022/06/06 11:51:58;;;;;;;7.35;4.25;;;;;;;21.90;80.41;94799.06;4985393;28;20173;-81
2022/06/06 11:54:33;;;;;;;5.15;3.10;;;;;;;21.95;80.83;94817.78;4983091;28;20661;-81
2022/06/06 11:57:20;;;;;;;4.20;3.40;;;;;;;21.98;79.82;94820.72;4987715;28;20172;-82
2022/06/06 12:00:14;;;;;;;6.40;3.10;;;;;;;21.98;80.30;94810.00;4975124;28;20174;-82
2022/06/06 12:03:06;;;;;;;6.80;2.90;;;;;;;22.10;79.60;94841.81;4981436;28;20174;-82
2022/06/06 12:06:09;;;;;;;4.53;3.00;;;;;;;22.15;78.92;94837.19;4969716;28;20197;-80
2022/06/06 12:08:50;;;;;;;6.07;2.92;;;;;;;22.13;76.15;94835.88;4989019;28;20221;-81
2022/06/06 12:11:36;;;;;;;4.45;3.45;;;;;;;22.05;78.47;94817.72;4980966;28;20181;-81
2022/06/06 12:14:14;;;;;;;4.55;3.58;;;;;;;22.00;80.06;94777.53;4985058;28;20189;-81
2022/06/06 12:16:58;;;;;;;4.47;3.30;;;;;;;22.08;79.18;94785.75;4976198;28;20173;-81
2022/06/06 12:19:41;;;;;;;7.63;3.30;;;;;;;22.14;77.44;94783.84;4984520;28;20179;-80
2022/06/06 12:22:31;;;;;;;6.22;3.10;;;;;;;22.13;78.54;94783.03;4984091;28;20177;-80
2022/06/06 12:25:23;;;;;;;4.95;3.28;;;;;;;21.96;79.32;94765.78;4978579;28;20217;-80
2022/06/06 12:27:48;;;;;;;4.47;3.00;;;;;;;21.91;79.43;94782.69;4961718;28;20176;-80
2022/06/06 12:30:32;;;;;;;6.97;3.13;;;;;;;21.99;79.08;94798.19;4999731;28;20185;-80
2022/06/06 12:33:04;;;;;;;5.75;3.90;;;;;;;21.85;79.34;94775.78;4992966;28;20205;-80
2022/06/06 12:35:43;;;;;;;4.32;3.40;;;;;;;22.14;79.51;94811.44;4972327;28;20182;-80
2022/06/06 12:38:11;;;;;;;5.07;3.97;;;;;;;22.24;79.11;94820.47;4972023;28;20233;-80
2022/06/06 12:40:49;;;;;;;5.72;3.45;;;;;;;22.32;79.23;94822.53;4980706;28;20240;-80
2022/06/06 12:43:41;;;;;;;7.68;4.50;;;;;;;22.42;78.88;94827.78;4982269;28;20177;-80
2022/06/06 12:46:45;;;;;;;7.25;3.33;;;;;;;22.42;77.53;94822.41;4992213;28;20202;-80
2022/06/06 12:49:16;;;;;;;7.18;3.50;;;;;;;22.39;76.94;94815.75;4965335;28;20221;-80
2022/06/06 12:52:00;;;;;;;6.72;4.07;;;;;;;22.36;78.10;94802.91;4993940;28;20175;-80
2022/06/06 12:58:14;;;;;;;4.60;3.08;;;;;;;22.17;77.46;94788.63;4984306;28;20250;-80
2022/06/06 13:03:36;;;;;;;5.20;3.30;;;;;;;22.34;77.96;94778.25;4982299;28;20168;-80